Great Village, Canada
Current Conditions -  °F | °C
As of 12:00 PM on Thursday 18 Dec 2014 (Local Time) from CYHZ Reporting Station
Broken Clouds Broken Clouds  
Wind Chill: 33°   Ceiling: 1200
Heat Index: 41°   Visibility: 15mi
Dew Point: 37°   Wind: 14mph
Humidity: 87%   Direction: 200°SSW
Pressure: 29.4"   Gusts: 23mph
Location:  45.42°N, 63.6°W
Report Text: CYHZ 181600Z 20012G20KT 15SM BKN012 05/03 A2940 RMK CU7 SLP960
Loading
Personal Weather Stations






























Interactive Weather Map New forecast layout! Learn more

10-Day Weather Forecast

Advertisements
Track Severe Weather on mobile